Date,TemperatureHighF,TemperatureAvgF,TemperatureLowF,DewpointHighF,DewpointAvgF,DewpointLowF,HumidityHigh,HumidityAvg,HumidityLow,PressureMaxIn,PressureMinIn,WindSpeedMaxMPH,WindSpeedAvgMPH,GustSpeedMaxMPH,PrecipitationSumIn
2013-2-1,40,33,23,29,15,5,83,51,29,30.34,29.79,8,3,12,0.00
2013-2-2,42,31,18,34,16,10,84,56,31,30.35,29.98,4,1,9,0.00
2013-2-3,47,38,31,35,29,23,96,70,46,29.97,29.78,5,2,9,0.01
2013-2-4,47,36,24,29,24,20,89,63,38,30.09,29.93,3,1,5,0.00
2013-2-5,58,45,35,37,32,29,87,64,39,29.93,29.81,4,1,10,0.00
2013-2-6,58,42,30,36,30,26,96,68,29,30.23,29.90,4,1,5,0.00
2013-2-7,45,39,32,40,35,28,97,86,69,30.29,29.97,2,0,5,0.73
2013-2-8,53,43,37,46,38,29,97,84,61,29.98,29.75,4,2,6,0.51
2013-2-9,52,38,27,30,24,18,89,61,28,30.31,29.98,4,1,6,0.00
2013-2-10,52,37,24,38,25,20,93,66,32,30.44,30.15,3,1,8,0.05
2013-2-11,60,53,40,58,51,38,98,95,91,30.14,29.85,4,2,6,0.08
2013-2-12,58,50,42,52,36,27,93,62,31,30.02,29.86,3,1,9,0.00
2013-2-13,47,44,40,45,42,34,97,93,74,29.89,29.57,4,1,9,0.35
2013-2-14,50,39,30,35,32,28,97,78,49,30.02,29.76,3,1,6,0.00
2013-2-15,61,43,30,40,32,27,98,71,30,30.04,29.87,3,1,5,0.00
2013-2-16,43,35,28,34,32,25,96,90,70,29.91,29.78,3,0,5,0.31
2013-2-17,36,28,21,25,17,10,89,66,34,30.23,29.86,6,2,9,0.00
2013-2-18,51,32,16,27,20,13,93,64,32,30.36,30.19,3,1,9,0.00
2013-2-19,48,40,32,47,37,26,97,87,65,30.17,29.81,4,2,12,0.20
2013-2-20,50,39,28,34,22,12,95,54,23,30.09,29.91,4,1,12,0.00
2013-2-21,52,38,25,29,22,16,84,54,26,30.20,30.05,3,1,5,0.00
2013-2-22,40,35,32,34,31,24,97,87,52,30.29,30.08,1,0,4,0.27
2013-2-23,42,38,35,41,38,34,98,97,95,30.08,29.76,2,0,3,0.28
2013-2-24,62,47,34,45,38,27,99,75,30,29.98,29.73,3,1,6,0.02
2013-2-25,42,35,30,31,26,23,91,70,49,30.18,29.98,2,0,6,0.00
2013-2-26,53,42,30,52,39,26,98,91,69,30.10,29.50,4,1,10,0.65
2013-2-27,58,47,41,42,39,35,98,77,46,29.72,29.55,4,2,10,0.00
2013-2-28,48,41,32,39,32,27,96,71,46,29.80,29.63,4,1,7,0.00